Chico, Texas
Current Conditions -  °F | °C
As of 4:35 AM on Sunday 26 Oct 2014 (Local Time) from KXBP Reporting Station
Clear Clear  
Wind Chill: 68°   Ceiling: Unl
Heat Index: 68°   Visibility: 10mi
Dew Point: 58°   Wind: 0mph
Humidity: 70%   Direction: NA
Pressure: 30"   Gusts: NA
Location:  33.3°N, 97.8°W
Report Text: KXBP 260935Z AUTO 00000KT 10SM CLR 20/15 A3000 RMK AO2 T02020146
Loading
Personal Weather Stations






























Interactive Weather Map
Tropical Storm Tracking
New forecast layout! Learn more

10-Day Weather Forecast

Advertisements
Track Severe Weather on mobile